Time;durP1;ratioP1;P1;durP2;ratioP2;P2;SDS_P1;SDS_P2;PMS_P1;PMS_P2;Temp;Humidity;BMP_temperature;BMP_pressure;BME280_temperature;BME280_humidity;BME280_pressure;Samples;Min_cycle;Max_cycle;Signal;HPM_P1;HPM_P2
2023/12/19 00:00:59;;;;;;;93.07;33.92;;;8.90;99.90;;;;;;5030536;28;20033;-49
2023/12/19 00:03:25;;;;;;;91.28;30.85;;;8.40;99.90;;;;;;5011241;28;20051;-49
2023/12/19 00:05:50;;;;;;;87.28;31.17;;;8.80;99.90;;;;;;5029598;28;20037;-51
2023/12/19 00:08:16;;;;;;;76.28;28.70;;;8.70;99.90;;;;;;5028863;28;20061;-48
2023/12/19 00:10:42;;;;;;;71.95;28.00;;;8.30;99.90;;;;;;5031195;28;20033;-49
2023/12/19 00:13:08;;;;;;;70.13;27.17;;;8.30;99.90;;;;;;5031208;28;20045;-50
2023/12/19 00:15:34;;;;;;;78.28;27.13;;;8.50;99.90;;;;;;5031302;28;20033;-49
2023/12/19 00:17:59;;;;;;;80.50;28.77;;;8.30;99.90;;;;;;5031311;28;20050;-50
2023/12/19 00:20:25;;;;;;;77.28;27.17;;;8.30;99.90;;;;;;5029721;28;20539;-51
2023/12/19 00:22:51;;;;;;;63.50;23.50;;;8.40;99.90;;;;;;5031025;28;20473;-50
2023/12/19 00:25:17;;;;;;;63.17;25.92;;;8.80;99.90;;;;;;5031026;28;20037;-51
2023/12/19 00:27:42;;;;;;;62.05;25.17;;;8.30;99.90;;;;;;5030615;28;20048;-51
2023/12/19 00:30:08;;;;;;;71.28;26.15;;;8.80;99.90;;;;;;5030954;28;20143;-50
2023/12/19 00:32:34;;;;;;;75.07;45.28;;;8.30;99.90;;;;;;5030714;28;20041;-49
2023/12/19 00:34:59;;;;;;;74.13;28.40;;;8.80;99.90;;;;;;5029237;28;20064;-49
2023/12/19 00:37:25;;;;;;;71.68;26.45;;;8.90;99.90;;;;;;5030964;28;20112;-50
2023/12/19 00:39:51;;;;;;;70.57;26.88;;;8.20;99.90;;;;;;5030875;28;20050;-50
2023/12/19 00:42:16;;;;;;;76.80;26.60;;;8.30;99.90;;;;;;5030764;28;20091;-49
2023/12/19 00:44:42;;;;;;;80.85;28.73;;;8.40;99.90;;;;;;5030307;28;20124;-50
2023/12/19 00:47:09;;;;;;;83.53;27.40;;;8.60;99.90;;;;;;5028720;28;20037;-51
2023/12/19 00:49:35;;;;;;;69.47;26.00;;;8.80;99.90;;;;;;5030823;28;20080;-49
2023/12/19 00:52:01;;;;;;;74.38;26.05;;;8.20;99.90;;;;;;5030679;28;20030;-51
2023/12/19 00:54:27;;;;;;;78.18;27.05;;;8.90;99.90;;;;;;5030842;28;20037;-49
2023/12/19 00:56:52;;;;;;;81.95;47.15;;;8.50;99.90;;;;;;5030545;28;20047;-50
2023/12/19 00:59:18;;;;;;;74.55;24.58;;;8.90;99.90;;;;;;5030430;28;20053;-49
2023/12/19 01:01:44;;;;;;;69.32;25.88;;;8.90;99.90;;;;;;5030422;28;20041;-51
2023/12/19 01:04:10;;;;;;;67.75;26.00;;;8.90;99.90;;;;;;5030299;28;20030;-48
2023/12/19 01:06:36;;;;;;;75.63;26.75;;;8.30;99.90;;;;;;5030543;28;20083;-52
2023/12/19 01:09:02;;;;;;;65.60;27.15;;;8.30;99.90;;;;;;5027443;28;20041;-52
2023/12/19 01:11:29;;;;;;;71.55;26.45;;;8.70;99.90;;;;;;5030150;28;20033;-50
2023/12/19 01:13:54;;;;;;;75.82;26.77;;;8.90;99.90;;;;;;5029028;28;20536;-48
2023/12/19 01:16:20;;;;;;;64.32;26.38;;;8.90;99.90;;;;;;5030664;28;20129;-50
2023/12/19 01:18:46;;;;;;;61.08;24.02;;;8.30;99.90;;;;;;5030503;28;20045;-51
2023/12/19 01:21:11;;;;;;;70.07;26.13;;;8.90;99.90;;;;;;5029139;28;20038;-50
2023/12/19 01:23:38;;;;;;;72.63;25.58;;;8.30;99.90;;;;;;5030426;28;20493;-48
2023/12/19 01:26:04;;;;;;;60.33;23.25;;;8.60;99.90;;;;;;5030475;28;20048;-47
2023/12/19 01:28:30;;;;;;;74.38;24.98;;;8.90;99.90;;;;;;5028739;28;20099;-49
2023/12/19 01:30:55;;;;;;;58.72;24.23;;;9.20;99.90;;;;;;5029779;28;20111;-48
2023/12/19 01:33:21;;;;;;;62.38;23.48;;;8.90;99.90;;;;;;5028756;28;20076;-52
2023/12/19 01:35:47;;;;;;;68.38;26.27;;;8.90;99.90;;;;;;5028114;28;20084;-51
2023/12/19 01:38:14;;;;;;;74.72;24.92;;;8.90;99.90;;;;;;5026996;28;20040;-51
2023/12/19 01:40:40;;;;;;;62.03;23.83;;;8.30;99.90;;;;;;5029842;28;20165;-50
2023/12/19 01:43:20;;;;;;;70.90;24.75;;;8.10;99.90;;;;;;5030062;28;20088;-49
2023/12/19 01:45:46;;;;;;;62.90;24.65;;;8.20;99.90;;;;;;5029027;28;20072;-50
2023/12/19 01:48:13;;;;;;;54.67;22.48;;;8.20;99.90;;;;;;5030334;28;20043;-49
2023/12/19 01:50:40;;;;;;;60.60;23.60;;;8.80;99.90;;;;;;5030222;28;20144;-50
2023/12/19 01:53:06;;;;;;;45.10;18.77;;;8.80;99.90;;;;;;5029724;28;20037;-50
2023/12/19 01:55:31;;;;;;;46.72;21.98;;;8.20;99.90;;;;;;5029984;28;20040;-50
2023/12/19 01:57:58;;;;;;;51.78;22.08;;;8.30;99.90;;;;;;5015873;28;20057;-51
2023/12/19 02:00:23;;;;;;;56.08;22.92;;;8.20;99.90;;;;;;5033970;28;20044;-50
2023/12/19 02:02:51;;;;;;;54.95;21.23;;;8.90;99.90;;;;;;5031962;28;20037;-51
2023/12/19 02:05:17;;;;;;;60.38;25.15;;;8.20;99.90;;;;;;5032982;28;20038;-51
2023/12/19 02:07:43;;;;;;;58.45;23.05;;;8.80;99.90;;;;;;5033476;28;20043;-51
2023/12/19 02:10:10;;;;;;;54.05;21.95;;;8.50;99.90;;;;;;5031691;28;20436;-52
2023/12/19 02:12:37;;;;;;;58.90;24.60;;;8.80;99.90;;;;;;5031015;28;20042;-52
2023/12/19 02:15:04;;;;;;;58.42;23.92;;;8.20;99.90;;;;;;5033286;28;20033;-51
2023/12/19 02:17:30;;;;;;;57.67;24.67;;;8.20;99.90;;;;;;5033506;28;20103;-49
2023/12/19 02:19:55;;;;;;;51.60;22.48;;;8.80;99.90;;;;;;5033352;28;20397;-49
2023/12/19 02:22:21;;;;;;;48.20;22.10;;;8.20;99.90;;;;;;5033306;28;20080;-48
2023/12/19 02:24:48;;;;;;;55.25;23.05;;;8.30;99.90;;;;;;5033603;28;20072;-53
2023/12/19 02:27:15;;;;;;;57.75;23.27;;;8.40;99.90;;;;;;5033080;28;20473;-51
2023/12/19 02:29:40;;;;;;;54.88;23.52;;;8.50;99.90;;;;;;5033433;28;20420;-49
2023/12/19 02:32:06;;;;;;;59.90;22.88;;;8.20;99.90;;;;;;5031881;28;20128;-52
2023/12/19 02:34:32;;;;;;;55.38;22.13;;;8.80;99.90;;;;;;5032626;28;20121;-52
2023/12/19 02:36:58;;;;;;;52.65;22.35;;;8.10;99.90;;;;;;5025298;28;20477;-49
2023/12/19 02:39:23;;;;;;;57.72;22.52;;;8.80;99.90;;;;;;5027130;28;20053;-49
2023/12/19 02:41:49;;;;;;;55.33;23.88;;;8.80;99.90;;;;;;5032686;28;20083;-50
2023/12/19 02:44:15;;;;;;;54.63;23.35;;;8.70;99.90;;;;;;5032173;28;20076;-48
2023/12/19 02:46:40;;;;;;;57.13;23.25;;;8.50;99.90;;;;;;5031130;28;20053;-52
2023/12/19 02:49:06;;;;;;;60.55;23.67;;;8.40;99.90;;;;;;5031920;28;20044;-49
2023/12/19 02:51:32;;;;;;;56.40;22.55;;;8.30;99.90;;;;;;5032285;28;20428;-48
2023/12/19 02:53:58;;;;;;;51.40;21.95;;;8.80;99.90;;;;;;5030113;28;20079;-48
2023/12/19 02:56:24;;;;;;;56.03;22.67;;;8.90;99.90;;;;;;5029667;28;20045;-51
2023/12/19 02:58:50;;;;;;;52.35;22.27;;;8.30;99.90;;;;;;5031365;28;20045;-50
2023/12/19 03:01:16;;;;;;;53.30;20.65;;;8.20;99.90;;;;;;5032344;28;20048;-49
2023/12/19 03:03:43;;;;;;;56.47;21.67;;;8.20;99.90;;;;;;5031753;28;20046;-49
2023/12/19 03:06:09;;;;;;;57.10;22.20;;;8.90;99.90;;;;;;5031586;28;20038;-49
2023/12/19 03:08:35;;;;;;;57.83;23.20;;;8.20;99.90;;;;;;5032055;28;20095;-50
2023/12/19 03:11:01;;;;;;;61.17;22.17;;;8.20;99.90;;;;;;5028122;28;20095;-49
2023/12/19 03:13:26;;;;;;;44.00;18.98;;;8.80;99.90;;;;;;5032256;28;20065;-50
2023/12/19 03:15:52;;;;;;;59.22;23.50;;;8.40;99.90;;;;;;5029090;28;20042;-49
2023/12/19 03:18:23;;;;;;;50.67;21.45;;;8.70;99.90;;;;;;5030363;28;20029;-52
2023/12/19 03:20:51;;;;;;;58.55;23.88;;;8.20;99.90;;;;;;5031776;28;20121;-50
2023/12/19 03:23:18;;;;;;;63.63;23.90;;;8.20;99.90;;;;;;5032141;28;20042;-51
2023/12/19 03:25:44;;;;;;;62.28;24.85;;;8.80;99.90;;;;;;5032211;28;20084;-52
2023/12/19 03:28:10;;;;;;;66.65;24.80;;;8.60;99.90;;;;;;5030902;28;20045;-48
2023/12/19 03:30:35;;;;;;;69.00;25.92;;;8.20;99.90;;;;;;5031983;28;20481;-51
2023/12/19 03:33:02;;;;;;;68.13;24.30;;;8.30;99.90;;;;;;5031922;28;20252;-50
2023/12/19 03:35:28;;;;;;;70.97;25.05;;;8.90;99.90;;;;;;5031544;28;20037;-49
2023/12/19 03:37:54;;;;;;;68.22;26.25;;;8.80;99.90;;;;;;5030926;28;20107;-51
2023/12/19 03:40:19;;;;;;;61.17;24.52;;;8.40;99.90;;;;;;5031416;28;20171;-51
2023/12/19 03:42:45;;;;;;;58.10;23.63;;;8.90;99.90;;;;;;5029459;28;20054;-52
2023/12/19 03:45:11;;;;;;;59.92;23.85;;;8.40;99.90;;;;;;5030570;28;20544;-50
2023/12/19 03:47:38;;;;;;;61.38;23.20;;;8.90;99.90;;;;;;5030691;28;20279;-48
2023/12/19 03:50:05;;;;;;;60.35;23.80;;;8.60;99.90;;;;;;5030925;28;20487;-50
2023/12/19 03:52:30;;;;;;;66.07;23.73;;;8.20;99.90;;;;;;5029069;28;20036;-49
2023/12/19 03:54:56;;;;;;;71.35;24.95;;;8.20;99.90;;;;;;5029327;28;20473;-50
2023/12/19 03:57:22;;;;;;;70.75;25.88;;;8.80;99.90;;;;;;5030348;28;20132;-50
2023/12/19 03:59:47;;;;;;;63.90;24.25;;;8.30;99.90;;;;;;5029782;28;20040;-50
2023/12/19 04:02:13;;;;;;;57.70;23.27;;;8.40;99.90;;;;;;5030309;28;20122;-52
2023/12/19 04:04:39;;;;;;;62.33;26.30;;;8.40;99.90;;;;;;5029882;28;20086;-50
2023/12/19 04:07:05;;;;;;;69.05;26.33;;;8.30;99.90;;;;;;5030618;28;20053;-52
2023/12/19 04:09:30;;;;;;;63.13;27.85;;;8.40;99.90;;;;;;5031447;28;20148;-49
2023/12/19 04:12:01;;;;;;;64.65;24.63;;;8.80;99.90;;;;;;5031241;28;20509;-50
2023/12/19 04:14:27;;;;;;;66.53;26.63;;;8.40;99.90;;;;;;5030524;28;20083;-51
2023/12/19 04:16:52;;;;;;;71.95;26.58;;;8.20;99.90;;;;;;5028957;28;20133;-51
2023/12/19 04:19:21;;;;;;;60.15;25.50;;;8.70;99.90;;;;;;5030865;28;20041;-49
2023/12/19 04:21:47;;;;;;;70.38;28.10;;;8.30;99.90;;;;;;5030750;28;20041;-51
2023/12/19 04:24:13;;;;;;;72.05;27.73;;;8.90;99.90;;;;;;5030808;28;20038;-50
2023/12/19 04:26:39;;;;;;;68.85;27.45;;;9.00;99.90;;;;;;5026087;28;20041;-51
2023/12/19 04:29:05;;;;;;;65.90;26.65;;;8.90;99.90;;;;;;5030881;28;20116;-49
2023/12/19 04:31:31;;;;;;;63.40;25.13;;;8.80;99.90;;;;;;5030061;28;20029;-49
2023/12/19 04:33:57;;;;;;;71.68;27.75;;;9.00;99.90;;;;;;5030245;28;20116;-49
2023/12/19 04:36:23;;;;;;;71.90;26.52;;;8.80;99.90;;;;;;5031007;28;20120;-53
2023/12/19 04:38:48;;;;;;;77.07;28.23;;;8.90;99.90;;;;;;5030676;28;20049;-52
2023/12/19 04:41:14;;;;;;;71.78;26.15;;;8.90;99.90;;;;;;5031282;28;20037;-49
2023/12/19 04:43:40;;;;;;;71.20;26.27;;;8.50;99.90;;;;;;5030564;28;20077;-52
2023/12/19 04:46:08;;;;;;;67.68;25.35;;;8.40;99.90;;;;;;5030971;28;20053;-52
2023/12/19 04:48:34;;;;;;;76.85;26.40;;;8.40;99.90;;;;;;5030621;28;20112;-51
2023/12/19 04:51:00;;;;;;;67.15;26.70;;;8.40;99.90;;;;;;5031332;28;20400;-51
2023/12/19 04:53:26;;;;;;;70.45;25.80;;;8.80;99.90;;;;;;5030428;28;20033;-52
2023/12/19 04:55:52;;;;;;;62.70;24.80;;;9.00;99.90;;;;;;5031045;28;20034;-51
2023/12/19 04:58:18;;;;;;;63.22;24.15;;;8.40;99.90;;;;;;5029955;28;20481;-52
2023/12/19 05:00:43;;;;;;;62.63;23.75;;;8.40;99.90;;;;;;5030987;28;20044;-49
2023/12/19 05:03:09;;;;;;;57.10;22.15;;;9.00;99.90;;;;;;5030182;28;20412;-51
2023/12/19 05:05:35;;;;;;;46.90;20.48;;;8.60;99.90;;;;;;5012677;28;20077;-51
2023/12/19 05:08:01;;;;;;;59.92;21.85;;;8.60;99.90;;;;;;5030453;28;20497;-51
2023/12/19 05:10:26;;;;;;;55.35;21.95;;;8.40;99.90;;;;;;5030334;28;20033;-56
2023/12/19 05:12:52;;;;;;;55.63;20.70;;;9.10;99.90;;;;;;5030433;28;20033;-54
2023/12/19 05:15:18;;;;;;;58.40;20.48;;;8.50;99.90;;;;;;5030623;28;20052;-51
2023/12/19 05:17:43;;;;;;;50.00;21.45;;;9.10;99.90;;;;;;5030591;28;20083;-53
2023/12/19 05:20:09;;;;;;;48.85;18.30;;;9.10;99.90;;;;;;5029903;28;20485;-50
2023/12/19 05:22:35;;;;;;;48.25;18.67;;;8.40;99.90;;;;;;5030063;28;20048;-51
2023/12/19 05:25:01;;;;;;;45.10;17.92;;;8.50;99.90;;;;;;5030091;28;20041;-55
2023/12/19 05:27:26;;;;;;;45.78;17.48;;;9.10;99.90;;;;;;5030724;28;20041;-54
2023/12/19 05:29:52;;;;;;;50.15;18.73;;;8.80;99.90;;;;;;5032202;28;20523;-55
2023/12/19 05:32:18;;;;;;;41.47;16.95;;;9.10;99.90;;;;;;5033891;28;20044;-56
2023/12/19 05:34:43;;;;;;;38.17;15.73;;;8.60;99.90;;;;;;5033737;28;20033;-54
2023/12/19 05:37:09;;;;;;;40.53;16.42;;;8.40;99.90;;;;;;5034339;28;20095;-54
2023/12/19 05:39:35;;;;;;;36.88;16.05;;;8.40;99.90;;;;;;5033747;28;20064;-52
2023/12/19 05:42:01;;;;;;;33.17;15.65;;;8.80;99.90;;;;;;5031867;28;20113;-54
2023/12/19 05:44:27;;;;;;;36.58;15.63;;;9.00;99.90;;;;;;5033133;28;20053;-52
2023/12/19 05:46:52;;;;;;;35.78;15.93;;;9.10;99.90;;;;;;5033568;28;20055;-52
2023/12/19 05:49:18;;;;;;;35.88;14.85;;;8.90;99.90;;;;;;5032338;28;20037;-53
2023/12/19 05:51:44;;;;;;;37.38;16.02;;;8.80;99.90;;;;;;5032953;28;20041;-55
2023/12/19 05:54:10;;;;;;;37.95;15.73;;;8.70;99.90;;;;;;5033921;28;20473;-54
2023/12/19 05:56:36;;;;;;;33.13;14.93;;;9.10;99.90;;;;;;5034102;28;20381;-55
2023/12/19 05:59:02;;;;;;;36.13;14.82;;;9.10;99.90;;;;;;5033715;28;20044;-55
2023/12/19 06:01:28;;;;;;;33.88;13.52;;;8.50;99.90;;;;;;5033686;28;20044;-54
2023/12/19 06:03:56;;;;;;;30.40;14.02;;;9.00;99.90;;;;;;5033722;28;20045;-55
2023/12/19 06:06:22;;;;;;;31.33;14.13;;;8.40;99.90;;;;;;5033268;28;20046;-53
2023/12/19 06:08:47;;;;;;;33.45;14.90;;;8.80;99.90;;;;;;5033651;28;20376;-54
2023/12/19 06:11:13;;;;;;;35.72;15.25;;;8.40;99.90;;;;;;5033312;28;20409;-54
2023/12/19 06:13:39;;;;;;;34.33;15.07;;;9.10;99.90;;;;;;5033298;28;20366;-55
2023/12/19 06:16:05;;;;;;;39.20;15.27;;;8.70;99.90;;;;;;5033569;28;20068;-52
2023/12/19 06:18:32;;;;;;;33.03;14.38;;;8.90;99.90;;;;;;5033587;28;20050;-56
2023/12/19 06:20:59;;;;;;;33.38;14.70;;;8.60;99.90;;;;;;5033508;28;20088;-54
2023/12/19 06:23:28;;;;;;;39.25;15.15;;;9.20;99.90;;;;;;5033159;28;20056;-55
2023/12/19 06:25:54;;;;;;;31.40;13.77;;;8.90;99.90;;;;;;5032093;28;20064;-54
2023/12/19 06:28:20;;;;;;;35.58;14.32;;;8.50;99.90;;;;;;5033291;28;20049;-56
2023/12/19 06:30:45;;;;;;;36.38;13.82;;;8.80;99.90;;;;;;5033014;28;20029;-56
2023/12/19 06:33:11;;;;;;;37.40;14.77;;;9.20;99.90;;;;;;5033140;28;20045;-55
2023/12/19 06:35:43;;;;;;;36.47;14.35;;;9.20;99.90;;;;;;5032638;28;20128;-54
2023/12/19 06:38:09;;;;;;;31.75;13.52;;;9.10;99.90;;;;;;5031961;28;20507;-55
2023/12/19 06:40:36;;;;;;;34.75;14.55;;;8.60;99.90;;;;;;5032280;28;20045;-52
2023/12/19 06:43:10;;;;;;;30.95;13.88;;;9.10;99.90;;;;;;5031299;28;20092;-55
2023/12/19 06:45:36;;;;;;;30.00;14.10;;;8.90;99.90;;;;;;5032842;28;20072;-55
2023/12/19 06:48:02;;;;;;;30.27;13.07;;;8.60;99.90;;;;;;5014479;28;20045;-55
2023/12/19 06:50:27;;;;;;;29.83;13.82;;;8.70;99.90;;;;;;5031541;28;20033;-52
2023/12/19 06:52:54;;;;;;;34.20;14.23;;;9.00;99.90;;;;;;5032467;28;20392;-52
2023/12/19 06:55:21;;;;;;;29.95;13.35;;;8.80;99.90;;;;;;5030479;28;20042;-55
2023/12/19 06:57:47;;;;;;;30.63;14.57;;;9.30;99.90;;;;;;5032960;28;20389;-53
2023/12/19 07:00:13;;;;;;;34.00;14.07;;;9.10;99.90;;;;;;5031299;28;20053;-55
2023/12/19 07:02:41;;;;;;;31.00;13.82;;;9.30;99.90;;;;;;5031189;28;20045;-54
2023/12/19 07:05:07;;;;;;;32.63;14.88;;;9.30;99.90;;;;;;5031887;28;20045;-52
2023/12/19 07:07:33;;;;;;;35.40;15.00;;;8.90;99.90;;;;;;5030958;28;20227;-54
2023/12/19 07:09:59;;;;;;;32.30;13.50;;;9.40;99.90;;;;;;5031930;28;20464;-53
2023/12/19 07:12:25;;;;;;;36.58;14.95;;;8.60;99.90;;;;;;5032717;28;20041;-53
2023/12/19 07:14:50;;;;;;;34.10;15.20;;;9.40;99.90;;;;;;5032623;28;20041;-52
2023/12/19 07:17:16;;;;;;;35.03;14.43;;;9.30;99.90;;;;;;5032180;28;20049;-55
2023/12/19 07:19:43;;;;;;;36.30;14.93;;;9.30;99.90;;;;;;5030987;28;20033;-54
2023/12/19 07:22:09;;;;;;;35.45;14.75;;;8.80;99.90;;;;;;5031828;28;20124;-54
2023/12/19 07:24:34;;;;;;;32.95;13.65;;;9.10;99.90;;;;;;5032290;28;20430;-54
2023/12/19 07:27:00;;;;;;;36.92;14.77;;;9.40;99.90;;;;;;5030136;28;20041;-53
2023/12/19 07:29:26;;;;;;;34.97;14.27;;;9.40;99.90;;;;;;5031354;28;20477;-54
2023/12/19 07:31:52;;;;;;;32.65;13.82;;;8.80;99.90;;;;;;5031007;28;20041;-55
2023/12/19 07:34:18;;;;;;;40.85;16.92;;;9.20;99.90;;;;;;5031208;28;20504;-55
2023/12/19 07:36:45;;;;;;;38.30;16.50;;;9.10;99.90;;;;;;5023699;28;20049;-53
2023/12/19 07:39:11;;;;;;;40.00;16.02;;;9.50;99.90;;;;;;5022668;28;20037;-55
2023/12/19 07:41:37;;;;;;;37.63;16.65;;;8.80;99.90;;;;;;5022314;28;20040;-54
2023/12/19 07:44:09;;;;;;;44.05;16.98;;;8.80;99.90;;;;;;5022833;28;20122;-53
2023/12/19 07:46:38;;;;;;;42.30;16.80;;;9.20;99.90;;;;;;5024522;28;20418;-56
2023/12/19 07:49:05;;;;;;;38.80;15.73;;;9.50;99.90;;;;;;5022940;28;20096;-53
2023/12/19 07:51:30;;;;;;;47.47;17.30;;;9.60;99.90;;;;;;5023592;28;20914;-56
2023/12/19 07:53:57;;;;;;;42.67;17.08;;;9.20;99.90;;;;;;5021606;28;20044;-55
2023/12/19 07:56:23;;;;;;;42.22;18.55;;;9.40;99.90;;;;;;5024525;28;20061;-54
2023/12/19 07:58:48;;;;;;;48.72;18.27;;;9.50;99.90;;;;;;5023011;28;20465;-55
2023/12/19 08:01:14;;;;;;;48.25;18.27;;;9.30;99.90;;;;;;5022602;28;20037;-54
2023/12/19 08:03:42;;;;;;;44.40;18.85;;;9.00;99.90;;;;;;5023676;28;20037;-55
2023/12/19 08:06:08;;;;;;;50.88;20.35;;;9.00;99.90;;;;;;5023541;28;20049;-55
2023/12/19 08:08:33;;;;;;;47.78;19.67;;;9.60;99.90;;;;;;5023655;28;20116;-53
2023/12/19 08:10:59;;;;;;;50.38;19.50;;;9.70;99.90;;;;;;5023692;28;20052;-54
2023/12/19 08:13:25;;;;;;;47.28;20.13;;;9.70;99.90;;;;;;5024037;28;20034;-54
2023/12/19 08:15:52;;;;;;;56.83;21.08;;;9.10;99.90;;;;;;5021223;28;20049;-54
2023/12/19 08:18:18;;;;;;;55.33;21.48;;;9.20;99.90;;;;;;5022548;28;20046;-54
2023/12/19 08:20:45;;;;;;;51.58;21.17;;;9.80;99.90;;;;;;5008940;28;20054;-55
2023/12/19 08:23:10;;;;;;;54.08;20.92;;;9.70;99.90;;;;;;5029409;28;20430;-55
2023/12/19 08:25:37;;;;;;;53.13;21.75;;;9.20;99.90;;;;;;5026352;28;20038;-54
2023/12/19 08:28:04;;;;;;;56.72;21.75;;;9.20;99.90;;;;;;5028560;28;20037;-52
2023/12/19 08:30:30;;;;;;;51.10;20.58;;;9.30;99.90;;;;;;5031364;28;20404;-54
2023/12/19 08:32:57;;;;;;;54.42;19.75;;;9.40;99.90;;;;;;5027990;28;20037;-53
2023/12/19 08:35:23;;;;;;;55.35;21.13;;;9.30;99.90;;;;;;5030501;28;20500;-54
2023/12/19 08:37:49;;;;;;;49.97;21.35;;;9.80;99.90;;;;;;5031661;28;20037;-54
2023/12/19 08:40:15;;;;;;;58.78;21.63;;;10.00;99.90;;;;;;5031315;28;20446;-54
2023/12/19 08:42:41;;;;;;;53.53;21.80;;;9.40;99.90;;;;;;5030689;28;20099;-55
2023/12/19 08:45:23;;;;;;;48.38;20.85;;;9.60;99.90;;;;;;5029825;28;20650;-55
2023/12/19 08:47:49;;;;;;;54.45;20.75;;;9.60;99.90;;;;;;5031143;28;20037;-54
2023/12/19 08:50:15;;;;;;;47.92;18.05;;;9.80;99.90;;;;;;5031069;28;20045;-55
2023/12/19 08:52:42;;;;;;;51.42;20.42;;;9.30;99.90;;;;;;5031123;28;20052;-55
2023/12/19 08:55:12;;;;;;;48.40;20.27;;;9.40;99.90;;;;;;5031064;28;20565;-55
2023/12/19 08:57:41;;;;;;;50.53;20.00;;;9.90;99.90;;;;;;5030739;28;20049;-53
2023/12/19 09:00:12;;;;;;;49.10;20.38;;;9.70;99.90;;;;;;5031158;28;20459;-54
2023/12/19 09:02:45;;;;;;;45.70;19.77;;;9.90;99.90;;;;;;5030689;28;20030;-55
2023/12/19 09:05:17;;;;;;;46.75;20.38;;;9.60;99.90;;;;;;5034477;28;20052;-54
2023/12/19 09:07:46;;;;;;;45.17;21.20;;;10.00;99.90;;;;;;5035471;28;20498;-55
2023/12/19 09:10:14;;;;;;;41.65;19.85;;;10.10;99.90;;;;;;5034803;28;20044;-52
2023/12/19 09:12:40;;;;;;;51.35;21.25;;;10.00;99.90;;;;;;5034902;28;20042;-54
2023/12/19 09:15:06;;;;;;;49.80;20.13;;;9.40;99.90;;;;;;5032373;28;20473;-51
2023/12/19 09:17:33;;;;;;;44.88;21.08;;;9.40;99.90;;;;;;5029810;28;20033;-56
2023/12/19 09:20:05;;;;;;;52.42;21.40;;;9.30;99.90;;;;;;5021920;28;20047;-54
2023/12/19 09:22:31;;;;;;;46.08;20.67;;;9.60;99.90;;;;;;5030408;28;20052;-54
2023/12/19 09:24:57;;;;;;;57.35;22.75;;;9.70;99.90;;;;;;5032496;28;20048;-54
2023/12/19 09:27:24;;;;;;;40.92;18.52;;;10.00;99.90;;;;;;5031832;28;20033;-55
2023/12/19 09:29:50;;;;;;;55.67;23.17;;;9.40;99.90;;;;;;5031405;28;20034;-55
2023/12/19 09:32:16;;;;;;;53.65;22.98;;;9.70;99.90;;;;;;5011566;28;20447;-54
2023/12/19 09:34:42;;;;;;;56.80;22.58;;;10.00;99.90;;;;;;5031855;28;20611;-53
2023/12/19 09:37:07;;;;;;;54.75;23.08;;;9.30;99.90;;;;;;5029009;28;20405;-52
2023/12/19 09:39:33;;;;;;;55.80;22.30;;;9.40;99.90;;;;;;5033284;28;20033;-53
2023/12/19 09:42:00;;;;;;;52.35;22.77;;;9.50;99.90;;;;;;5022554;28;20056;-56
2023/12/19 09:44:28;;;;;;;51.17;22.13;;;9.40;99.90;;;;;;5022382;28;20481;-53
2023/12/19 09:46:54;;;;;;;51.75;22.10;;;9.40;99.90;;;;;;5024370;28;20038;-54
2023/12/19 09:49:25;;;;;;;48.92;21.27;;;9.30;99.90;;;;;;5023809;28;20033;-54
2023/12/19 09:51:53;;;;;;;51.17;21.02;;;9.50;99.90;;;;;;5023940;28;20073;-54
2023/12/19 09:54:22;;;;;;;48.13;21.50;;;9.70;99.90;;;;;;5023696;28;20040;-56
2023/12/19 09:56:49;;;;;;;49.60;21.80;;;9.50;99.90;;;;;;5025118;28;20504;-55
2023/12/19 09:59:19;;;;;;;45.38;20.45;;;9.40;99.90;;;;;;5024820;28;20413;-55
2023/12/19 10:01:45;;;;;;;45.33;19.73;;;9.50;99.90;;;;;;5025060;28;20088;-51
2023/12/19 10:04:14;;;;;;;45.85;19.50;;;9.40;99.90;;;;;;5025010;28;20215;-56
2023/12/19 10:07:00;;;;;;;45.67;20.65;;;10.20;99.90;;;;;;5022886;28;20037;-54
2023/12/19 10:09:26;;;;;;;37.92;19.48;;;9.50;99.90;;;;;;5025479;28;20504;-55
2023/12/19 10:12:12;;;;;;;39.33;18.10;;;9.90;99.90;;;;;;5024990;28;20120;-54
2023/12/19 10:14:38;;;;;;;44.58;19.77;;;9.40;99.90;;;;;;5024918;28;20448;-55
2023/12/19 10:17:05;;;;;;;40.88;18.83;;;10.00;99.90;;;;;;5025446;28;20068;-53
2023/12/19 10:19:33;;;;;;;44.40;17.80;;;9.40;99.90;;;;;;5006495;28;20041;-53
2023/12/19 10:22:09;;;;;;;39.92;19.17;;;9.90;99.90;;;;;;5024332;28;20128;-53
2023/12/19 10:24:36;;;;;;;39.63;18.38;;;10.10;99.90;;;;;;5025292;28;20030;-54
2023/12/19 10:27:05;;;;;;;32.88;16.35;;;9.40;99.90;;;;;;5024378;28;20045;-53
2023/12/19 10:29:38;;;;;;;38.03;17.98;;;9.50;99.90;;;;;;4992017;28;20033;-51
2023/12/19 10:32:17;;;;;;;41.53;18.75;;;9.90;99.90;;;;;;5025720;28;20033;-53
2023/12/19 10:34:58;;;;;;;39.08;18.45;;;9.40;99.90;;;;;;5018244;28;20045;-52
2023/12/19 10:37:27;;;;;;;35.55;28.20;;;9.60;99.90;;;;;;5020142;28;20033;-56
2023/12/19 10:40:11;;;;;;;33.45;16.73;;;9.40;99.90;;;;;;5019458;28;20673;-53
2023/12/19 10:42:37;;;;;;;33.47;16.80;;;9.90;99.90;;;;;;5021067;28;20029;-54
2023/12/19 10:45:07;;;;;;;36.08;18.20;;;9.40;99.90;;;;;;5022946;28;20366;-53
2023/12/19 10:47:32;;;;;;;31.92;15.70;;;9.70;99.90;;;;;;5022832;28;20513;-55
2023/12/19 10:49:58;;;;;;;33.75;17.27;;;9.70;99.90;;;;;;5023079;28;20171;-55
2023/12/19 10:52:27;;;;;;;33.08;16.95;;;10.10;99.90;;;;;;5024336;28;20034;-55
2023/12/19 10:55:06;;;;;;;33.60;17.20;;;10.30;99.90;;;;;;5022579;28;20033;-53
2023/12/19 10:57:35;;;;;;;34.15;17.17;;;9.90;99.90;;;;;;5021321;28;20505;-54
2023/12/19 11:00:09;;;;;;;30.73;25.67;;;9.80;99.90;;;;;;5023074;28;20041;-55
2023/12/19 11:02:45;;;;;;;34.25;16.83;;;9.60;99.90;;;;;;5023918;28;20034;-53
2023/12/19 11:05:50;;;;;;;29.73;15.10;;;10.20;99.90;;;;;;5024587;28;20120;-54
2023/12/19 11:08:18;;;;;;;32.83;14.90;;;9.50;99.90;;;;;;5006806;28;20085;-53
2023/12/19 11:10:53;;;;;;;37.33;27.00;;;10.40;99.90;;;;;;5024462;28;20389;-55
2023/12/19 11:13:20;;;;;;;31.02;14.55;;;9.90;99.90;;;;;;5023581;28;20087;-54
2023/12/19 11:16:03;;;;;;;31.58;16.15;;;9.80;99.90;;;;;;5023053;28;20056;-52
2023/12/19 11:18:41;;;;;;;30.13;15.85;;;10.20;99.90;;;;;;5024061;28;20465;-54
2023/12/19 11:21:16;;;;;;;30.75;15.38;;;9.40;99.90;;;;;;5023866;28;20029;-56
2023/12/19 11:23:50;;;;;;;28.85;14.55;;;9.90;99.90;;;;;;5019742;28;20037;-54
2023/12/19 11:26:15;;;;;;;30.25;16.08;;;9.70;99.90;;;;;;5012519;28;20046;-55
2023/12/19 11:28:41;;;;;;;29.98;16.80;;;9.50;99.90;;;;;;5013448;28;20393;-55
2023/12/19 11:31:36;;;;;;;28.75;15.07;;;9.50;99.90;;;;;;5024624;28;20124;-51
2023/12/19 11:34:24;;;;;;;27.52;14.52;;;9.60;99.90;;;;;;5012424;28;20412;-56
2023/12/19 11:37:07;;;;;;;30.08;14.88;;;10.20;99.90;;;;;;5026791;28;20574;-55
2023/12/19 11:39:40;;;;;;;29.55;14.85;;;9.80;99.90;;;;;;5025370;28;20351;-56
2023/12/19 11:42:06;;;;;;;29.92;15.40;;;10.00;99.90;;;;;;5025946;28;20489;-56
2023/12/19 11:44:36;;;;;;;31.35;15.45;;;9.60;99.90;;;;;;5023041;28;20057;-53
2023/12/19 11:47:22;;;;;;;32.17;15.45;;;10.30;99.90;;;;;;5023275;28;20053;-54
2023/12/19 11:49:47;;;;;;;31.85;14.70;;;10.00;99.90;;;;;;5021764;28;20049;-50
2023/12/19 11:52:33;;;;;;;27.60;14.50;;;9.60;99.90;;;;;;5025056;28;20596;-55
2023/12/19 11:55:04;;;;;;;29.85;14.70;;;10.20;99.90;;;;;;5022945;28;20037;-56
2023/12/19 11:57:30;;;;;;;26.88;14.27;;;10.20;99.90;;;;;;5026969;28;20034;-52
2023/12/19 11:59:56;;;;;;;28.70;15.43;;;10.10;99.90;;;;;;5025802;28;20029;-54
2023/12/19 12:02:29;;;;;;;31.90;15.32;;;10.30;99.90;;;;;;5024706;28;20034;-55
2023/12/19 12:05:08;;;;;;;27.13;15.07;;;10.20;99.90;;;;;;5023690;28;20033;-52
2023/12/19 12:07:40;;;;;;;27.48;14.02;;;10.30;99.90;;;;;;5021896;28;20033;-54
2023/12/19 12:10:09;;;;;;;29.48;15.15;;;10.30;99.90;;;;;;5026736;28;20045;-56
2023/12/19 12:12:35;;;;;;;25.00;13.30;;;10.20;99.90;;;;;;5025668;28;20281;-55
2023/12/19 12:15:08;;;;;;;27.90;14.52;;;9.90;99.90;;;;;;5023549;28;20041;-55
2023/12/19 12:17:35;;;;;;;32.22;15.15;;;10.00;99.90;;;;;;5020157;28;20159;-54
2023/12/19 12:20:01;;;;;;;29.98;15.65;;;10.50;99.90;;;;;;5008518;28;20057;-54
2023/12/19 12:22:26;;;;;;;32.67;15.73;;;10.30;99.90;;;;;;5029851;28;20033;-55
2023/12/19 12:24:55;;;;;;;26.55;13.48;;;10.30;99.90;;;;;;5028845;28;20560;-53
2023/12/19 12:27:21;;;;;;;30.83;15.13;;;10.40;99.90;;;;;;5028717;28;20045;-54
2023/12/19 12:29:47;;;;;;;33.05;14.77;;;10.10;99.90;;;;;;5028938;28;20029;-53
2023/12/19 12:32:13;;;;;;;32.63;15.60;;;10.40;99.90;;;;;;5027724;28;20029;-55
2023/12/19 12:34:38;;;;;;;27.67;14.45;;;9.70;99.90;;;;;;5021677;28;20104;-54
2023/12/19 12:37:05;;;;;;;30.55;14.93;;;10.40;99.90;;;;;;5024020;28;20057;-53